sensor_id;sensor_type;location;lat;lon;timestamp;P1;durP1;ratioP1;P2;durP2;ratioP2
74658;SDS011;63186;51.204;6.536;2023-04-15T00:01:03;8.67;;;4.67;;
74658;SDS011;63186;51.204;6.536;2023-04-15T00:03:29;11.57;;;5.00;;
74658;SDS011;63186;51.204;6.536;2023-04-15T00:05:55;10.85;;;5.30;;
74658;SDS011;63186;51.204;6.536;2023-04-15T00:08:21;9.43;;;4.70;;
74658;SDS011;63186;51.204;6.536;2023-04-15T00:10:47;10.38;;;5.18;;
74658;SDS011;63186;51.204;6.536;2023-04-15T00:13:13;9.65;;;4.90;;
74658;SDS011;63186;51.204;6.536;2023-04-15T00:15:39;9.50;;;5.20;;
74658;SDS011;63186;51.204;6.536;2023-04-15T00:18:05;11.52;;;5.53;;
74658;SDS011;63186;51.204;6.536;2023-04-15T00:20:31;13.02;;;5.40;;
74658;SDS011;63186;51.204;6.536;2023-04-15T00:22:57;10.77;;;5.05;;
74658;SDS011;63186;51.204;6.536;2023-04-15T00:25:24;8.88;;;5.07;;
74658;SDS011;63186;51.204;6.536;2023-04-15T00:27:49;9.43;;;5.07;;
74658;SDS011;63186;51.204;6.536;2023-04-15T00:30:14;11.27;;;5.23;;
74658;SDS011;63186;51.204;6.536;2023-04-15T00:32:40;14.77;;;5.60;;
74658;SDS011;63186;51.204;6.536;2023-04-15T00:35:06;11.25;;;6.57;;
74658;SDS011;63186;51.204;6.536;2023-04-15T00:37:32;10.35;;;5.05;;
74658;SDS011;63186;51.204;6.536;2023-04-15T00:39:59;9.25;;;5.45;;
74658;SDS011;63186;51.204;6.536;2023-04-15T00:42:24;10.68;;;5.78;;
74658;SDS011;63186;51.204;6.536;2023-04-15T00:44:50;12.23;;;5.25;;
74658;SDS011;63186;51.204;6.536;2023-04-15T00:47:15;11.32;;;4.97;;
74658;SDS011;63186;51.204;6.536;2023-04-15T00:49:42;11.52;;;5.13;;
74658;SDS011;63186;51.204;6.536;2023-04-15T00:52:07;11.33;;;5.07;;
74658;SDS011;63186;51.204;6.536;2023-04-15T00:54:33;10.98;;;6.00;;
74658;SDS011;63186;51.204;6.536;2023-04-15T00:56:58;12.15;;;5.25;;
74658;SDS011;63186;51.204;6.536;2023-04-15T00:59:24;9.25;;;5.13;;
74658;SDS011;63186;51.204;6.536;2023-04-15T01:01:50;8.82;;;4.57;;
74658;SDS011;63186;51.204;6.536;2023-04-15T01:04:16;9.98;;;5.05;;
74658;SDS011;63186;51.204;6.536;2023-04-15T01:06:41;8.02;;;4.40;;
74658;SDS011;63186;51.204;6.536;2023-04-15T01:09:06;10.67;;;4.43;;
74658;SDS011;63186;51.204;6.536;2023-04-15T01:11:32;10.30;;;4.93;;
74658;SDS011;63186;51.204;6.536;2023-04-15T01:14:00;11.68;;;5.70;;
74658;SDS011;63186;51.204;6.536;2023-04-15T01:16:26;8.73;;;4.35;;
74658;SDS011;63186;51.204;6.536;2023-04-15T01:18:52;10.55;;;6.03;;
74658;SDS011;63186;51.204;6.536;2023-04-15T01:21:18;11.18;;;5.95;;
74658;SDS011;63186;51.204;6.536;2023-04-15T01:23:44;10.93;;;5.05;;
74658;SDS011;63186;51.204;6.536;2023-04-15T01:26:11;16.55;;;5.22;;
74658;SDS011;63186;51.204;6.536;2023-04-15T01:28:37;8.82;;;5.25;;
74658;SDS011;63186;51.204;6.536;2023-04-15T01:33:31;9.02;;;5.38;;
74658;SDS011;63186;51.204;6.536;2023-04-15T01:35:56;10.73;;;5.88;;
74658;SDS011;63186;51.204;6.536;2023-04-15T01:38:22;10.45;;;5.88;;
74658;SDS011;63186;51.204;6.536;2023-04-15T01:40:47;11.87;;;6.13;;
74658;SDS011;63186;51.204;6.536;2023-04-15T01:43:12;9.15;;;4.80;;
74658;SDS011;63186;51.204;6.536;2023-04-15T01:45:39;9.23;;;5.43;;
74658;SDS011;63186;51.204;6.536;2023-04-15T01:48:04;10.35;;;5.93;;
74658;SDS011;63186;51.204;6.536;2023-04-15T01:50:31;9.00;;;4.45;;
74658;SDS011;63186;51.204;6.536;2023-04-15T01:52:56;10.43;;;6.13;;
74658;SDS011;63186;51.204;6.536;2023-04-15T01:55:22;12.82;;;5.75;;
74658;SDS011;63186;51.204;6.536;2023-04-15T01:57:47;10.50;;;5.57;;
74658;SDS011;63186;51.204;6.536;2023-04-15T02:00:12;10.40;;;4.93;;
74658;SDS011;63186;51.204;6.536;2023-04-15T02:02:38;11.15;;;5.13;;
74658;SDS011;63186;51.204;6.536;2023-04-15T02:05:03;9.00;;;5.18;;
74658;SDS011;63186;51.204;6.536;2023-04-15T02:07:29;11.88;;;5.65;;
74658;SDS011;63186;51.204;6.536;2023-04-15T02:09:56;10.25;;;5.78;;
74658;SDS011;63186;51.204;6.536;2023-04-15T02:12:21;9.93;;;5.50;;
74658;SDS011;63186;51.204;6.536;2023-04-15T02:14:46;12.40;;;6.00;;
74658;SDS011;63186;51.204;6.536;2023-04-15T02:17:12;14.95;;;6.45;;
74658;SDS011;63186;51.204;6.536;2023-04-15T02:19:37;11.67;;;5.27;;
74658;SDS011;63186;51.204;6.536;2023-04-15T02:22:04;10.20;;;5.38;;
74658;SDS011;63186;51.204;6.536;2023-04-15T02:24:31;9.80;;;4.80;;
74658;SDS011;63186;51.204;6.536;2023-04-15T02:26:57;9.30;;;5.07;;
74658;SDS011;63186;51.204;6.536;2023-04-15T02:29:22;10.32;;;5.28;;
74658;SDS011;63186;51.204;6.536;2023-04-15T02:31:48;10.18;;;5.65;;
74658;SDS011;63186;51.204;6.536;2023-04-15T02:34:13;11.55;;;5.93;;
74658;SDS011;63186;51.204;6.536;2023-04-15T02:36:39;12.18;;;7.05;;
74658;SDS011;63186;51.204;6.536;2023-04-15T02:39:04;11.70;;;6.50;;
74658;SDS011;63186;51.204;6.536;2023-04-15T02:41:30;13.95;;;7.18;;
74658;SDS011;63186;51.204;6.536;2023-04-15T02:43:55;11.63;;;5.77;;
74658;SDS011;63186;51.204;6.536;2023-04-15T02:46:21;14.85;;;7.50;;
74658;SDS011;63186;51.204;6.536;2023-04-15T02:48:46;14.57;;;7.43;;
74658;SDS011;63186;51.204;6.536;2023-04-15T02:51:13;13.43;;;6.93;;
74658;SDS011;63186;51.204;6.536;2023-04-15T02:53:39;14.77;;;7.65;;
74658;SDS011;63186;51.204;6.536;2023-04-15T02:56:05;11.82;;;6.32;;
74658;SDS011;63186;51.204;6.536;2023-04-15T02:58:32;11.63;;;6.75;;
74658;SDS011;63186;51.204;6.536;2023-04-15T03:00:58;11.65;;;7.13;;
74658;SDS011;63186;51.204;6.536;2023-04-15T03:03:24;16.33;;;7.05;;
74658;SDS011;63186;51.204;6.536;2023-04-15T03:05:49;10.43;;;6.55;;
74658;SDS011;63186;51.204;6.536;2023-04-15T03:08:14;11.37;;;6.70;;
74658;SDS011;63186;51.204;6.536;2023-04-15T03:10:40;12.32;;;6.80;;
74658;SDS011;63186;51.204;6.536;2023-04-15T03:13:05;12.65;;;6.80;;
74658;SDS011;63186;51.204;6.536;2023-04-15T03:15:31;9.88;;;5.80;;
74658;SDS011;63186;51.204;6.536;2023-04-15T03:17:57;10.00;;;8.82;;
74658;SDS011;63186;51.204;6.536;2023-04-15T03:20:22;17.13;;;7.67;;
74658;SDS011;63186;51.204;6.536;2023-04-15T03:22:47;14.63;;;7.15;;
74658;SDS011;63186;51.204;6.536;2023-04-15T03:25:13;17.17;;;8.20;;
74658;SDS011;63186;51.204;6.536;2023-04-15T03:27:38;10.53;;;5.63;;
74658;SDS011;63186;51.204;6.536;2023-04-15T03:30:03;9.87;;;5.57;;
74658;SDS011;63186;51.204;6.536;2023-04-15T03:32:30;13.55;;;5.68;;
74658;SDS011;63186;51.204;6.536;2023-04-15T03:34:56;14.75;;;7.03;;
74658;SDS011;63186;51.204;6.536;2023-04-15T03:37:21;13.27;;;6.63;;
74658;SDS011;63186;51.204;6.536;2023-04-15T03:39:46;12.73;;;7.23;;
74658;SDS011;63186;51.204;6.536;2023-04-15T03:42:12;14.23;;;6.50;;
74658;SDS011;63186;51.204;6.536;2023-04-15T03:44:37;13.00;;;6.70;;
74658;SDS011;63186;51.204;6.536;2023-04-15T03:47:02;13.80;;;7.77;;
74658;SDS011;63186;51.204;6.536;2023-04-15T03:49:27;16.17;;;8.77;;
74658;SDS011;63186;51.204;6.536;2023-04-15T03:51:53;16.43;;;8.27;;
74658;SDS011;63186;51.204;6.536;2023-04-15T03:54:18;13.00;;;7.50;;
74658;SDS011;63186;51.204;6.536;2023-04-15T03:56:43;15.40;;;7.80;;
74658;SDS011;63186;51.204;6.536;2023-04-15T03:59:08;10.98;;;6.63;;
74658;SDS011;63186;51.204;6.536;2023-04-15T04:01:34;11.63;;;7.07;;
74658;SDS011;63186;51.204;6.536;2023-04-15T04:03:59;14.43;;;8.75;;
74658;SDS011;63186;51.204;6.536;2023-04-15T04:06:25;14.07;;;7.55;;
74658;SDS011;63186;51.204;6.536;2023-04-15T04:08:50;11.43;;;6.18;;
74658;SDS011;63186;51.204;6.536;2023-04-15T04:11:15;12.95;;;7.25;;
74658;SDS011;63186;51.204;6.536;2023-04-15T04:13:41;12.77;;;7.90;;
74658;SDS011;63186;51.204;6.536;2023-04-15T04:16:06;13.60;;;8.00;;
74658;SDS011;63186;51.204;6.536;2023-04-15T04:18:32;12.65;;;6.93;;
74658;SDS011;63186;51.204;6.536;2023-04-15T04:20:57;14.27;;;7.83;;
74658;SDS011;63186;51.204;6.536;2023-04-15T04:23:22;13.32;;;8.32;;
74658;SDS011;63186;51.204;6.536;2023-04-15T04:25:48;13.13;;;8.23;;
74658;SDS011;63186;51.204;6.536;2023-04-15T04:28:13;12.77;;;6.93;;
74658;SDS011;63186;51.204;6.536;2023-04-15T04:30:38;13.57;;;7.27;;
74658;SDS011;63186;51.204;6.536;2023-04-15T04:33:04;13.38;;;8.07;;
74658;SDS011;63186;51.204;6.536;2023-04-15T04:35:29;16.63;;;8.68;;
74658;SDS011;63186;51.204;6.536;2023-04-15T04:37:55;18.55;;;8.73;;
74658;SDS011;63186;51.204;6.536;2023-04-15T04:40:20;15.60;;;7.70;;
74658;SDS011;63186;51.204;6.536;2023-04-15T04:42:46;15.27;;;8.77;;
74658;SDS011;63186;51.204;6.536;2023-04-15T04:45:11;15.77;;;8.18;;
74658;SDS011;63186;51.204;6.536;2023-04-15T04:47:37;14.23;;;7.35;;
74658;SDS011;63186;51.204;6.536;2023-04-15T04:50:03;14.85;;;8.43;;
74658;SDS011;63186;51.204;6.536;2023-04-15T04:52:29;11.77;;;7.10;;
74658;SDS011;63186;51.204;6.536;2023-04-15T04:54:54;13.53;;;7.60;;
74658;SDS011;63186;51.204;6.536;2023-04-15T04:57:19;14.90;;;7.93;;
74658;SDS011;63186;51.204;6.536;2023-04-15T04:59:45;14.33;;;7.60;;
74658;SDS011;63186;51.204;6.536;2023-04-15T05:02:10;16.70;;;9.10;;
74658;SDS011;63186;51.204;6.536;2023-04-15T05:04:35;17.00;;;9.30;;
74658;SDS011;63186;51.204;6.536;2023-04-15T05:07:01;14.38;;;8.40;;
74658;SDS011;63186;51.204;6.536;2023-04-15T05:09:26;13.95;;;7.53;;
74658;SDS011;63186;51.204;6.536;2023-04-15T05:11:52;13.88;;;7.18;;
74658;SDS011;63186;51.204;6.536;2023-04-15T05:14:17;14.65;;;8.95;;
74658;SDS011;63186;51.204;6.536;2023-04-15T05:16:42;14.67;;;8.40;;
74658;SDS011;63186;51.204;6.536;2023-04-15T05:19:07;13.17;;;7.63;;
74658;SDS011;63186;51.204;6.536;2023-04-15T05:21:33;15.67;;;8.43;;
74658;SDS011;63186;51.204;6.536;2023-04-15T05:23:58;15.07;;;7.90;;
74658;SDS011;63186;51.204;6.536;2023-04-15T05:26:23;16.52;;;8.20;;
74658;SDS011;63186;51.204;6.536;2023-04-15T05:28:49;17.23;;;8.30;;
74658;SDS011;63186;51.204;6.536;2023-04-15T05:31:14;15.13;;;7.93;;
74658;SDS011;63186;51.204;6.536;2023-04-15T05:33:40;14.77;;;8.77;;
74658;SDS011;63186;51.204;6.536;2023-04-15T05:36:06;14.82;;;7.60;;
74658;SDS011;63186;51.204;6.536;2023-04-15T05:38:31;15.38;;;8.23;;
74658;SDS011;63186;51.204;6.536;2023-04-15T05:40:56;20.27;;;10.23;;
74658;SDS011;63186;51.204;6.536;2023-04-15T05:43:22;17.40;;;9.67;;
74658;SDS011;63186;51.204;6.536;2023-04-15T05:45:47;16.57;;;8.90;;
74658;SDS011;63186;51.204;6.536;2023-04-15T05:48:12;15.47;;;8.93;;
74658;SDS011;63186;51.204;6.536;2023-04-15T05:50:39;16.17;;;9.53;;
74658;SDS011;63186;51.204;6.536;2023-04-15T05:53:05;17.83;;;9.10;;
74658;SDS011;63186;51.204;6.536;2023-04-15T05:55:31;17.83;;;10.13;;
74658;SDS011;63186;51.204;6.536;2023-04-15T05:57:56;16.20;;;9.65;;
74658;SDS011;63186;51.204;6.536;2023-04-15T06:00:22;19.20;;;9.70;;
74658;SDS011;63186;51.204;6.536;2023-04-15T06:02:47;17.53;;;12.47;;
74658;SDS011;63186;51.204;6.536;2023-04-15T06:05:12;17.92;;;10.65;;
74658;SDS011;63186;51.204;6.536;2023-04-15T06:07:38;18.65;;;10.75;;
74658;SDS011;63186;51.204;6.536;2023-04-15T06:10:03;22.97;;;12.10;;
74658;SDS011;63186;51.204;6.536;2023-04-15T06:12:29;18.30;;;11.68;;
74658;SDS011;63186;51.204;6.536;2023-04-15T06:14:55;14.90;;;9.05;;
74658;SDS011;63186;51.204;6.536;2023-04-15T06:17:20;21.20;;;11.00;;
74658;SDS011;63186;51.204;6.536;2023-04-15T06:19:46;17.75;;;10.00;;
74658;SDS011;63186;51.204;6.536;2023-04-15T06:22:11;16.83;;;10.80;;
74658;SDS011;63186;51.204;6.536;2023-04-15T06:24:36;17.43;;;10.60;;
74658;SDS011;63186;51.204;6.536;2023-04-15T06:27:02;16.37;;;11.00;;
74658;SDS011;63186;51.204;6.536;2023-04-15T06:29:27;15.05;;;9.77;;
74658;SDS011;63186;51.204;6.536;2023-04-15T06:31:53;17.48;;;10.88;;
74658;SDS011;63186;51.204;6.536;2023-04-15T06:34:18;17.00;;;10.85;;
74658;SDS011;63186;51.204;6.536;2023-04-15T06:36:43;16.83;;;10.25;;
74658;SDS011;63186;51.204;6.536;2023-04-15T06:39:09;18.10;;;10.27;;
74658;SDS011;63186;51.204;6.536;2023-04-15T06:41:34;17.67;;;11.47;;
74658;SDS011;63186;51.204;6.536;2023-04-15T06:44:00;19.25;;;10.40;;
74658;SDS011;63186;51.204;6.536;2023-04-15T06:46:25;16.77;;;8.57;;
74658;SDS011;63186;51.204;6.536;2023-04-15T06:48:51;14.90;;;8.77;;
74658;SDS011;63186;51.204;6.536;2023-04-15T06:51:16;17.10;;;9.82;;
74658;SDS011;63186;51.204;6.536;2023-04-15T06:53:41;15.25;;;9.55;;
74658;SDS011;63186;51.204;6.536;2023-04-15T06:56:07;15.02;;;9.30;;
74658;SDS011;63186;51.204;6.536;2023-04-15T06:58:33;17.08;;;10.60;;
74658;SDS011;63186;51.204;6.536;2023-04-15T07:00:59;17.73;;;10.23;;
74658;SDS011;63186;51.204;6.536;2023-04-15T07:03:24;16.47;;;8.37;;
74658;SDS011;63186;51.204;6.536;2023-04-15T07:05:50;14.27;;;8.57;;
74658;SDS011;63186;51.204;6.536;2023-04-15T07:08:15;16.87;;;10.13;;
74658;SDS011;63186;51.204;6.536;2023-04-15T07:10:40;15.23;;;9.50;;
74658;SDS011;63186;51.204;6.536;2023-04-15T07:13:05;14.13;;;8.82;;
74658;SDS011;63186;51.204;6.536;2023-04-15T07:15:32;14.27;;;8.82;;
74658;SDS011;63186;51.204;6.536;2023-04-15T07:17:58;15.30;;;9.20;;
74658;SDS011;63186;51.204;6.536;2023-04-15T07:20:23;14.83;;;9.03;;
74658;SDS011;63186;51.204;6.536;2023-04-15T07:22:48;15.27;;;9.52;;
74658;SDS011;63186;51.204;6.536;2023-04-15T07:25:13;15.40;;;8.77;;
74658;SDS011;63186;51.204;6.536;2023-04-15T07:27:39;17.27;;;9.50;;
74658;SDS011;63186;51.204;6.536;2023-04-15T07:30:04;15.90;;;9.45;;
74658;SDS011;63186;51.204;6.536;2023-04-15T07:32:30;11.45;;;7.55;;
74658;SDS011;63186;51.204;6.536;2023-04-15T07:34:56;16.20;;;9.17;;
74658;SDS011;63186;51.204;6.536;2023-04-15T07:37:21;15.80;;;8.27;;
74658;SDS011;63186;51.204;6.536;2023-04-15T07:39:47;12.13;;;7.57;;
74658;SDS011;63186;51.204;6.536;2023-04-15T07:42:13;16.08;;;9.05;;
74658;SDS011;63186;51.204;6.536;2023-04-15T07:44:39;15.02;;;8.20;;
74658;SDS011;63186;51.204;6.536;2023-04-15T07:47:04;14.48;;;8.07;;
74658;SDS011;63186;51.204;6.536;2023-04-15T07:49:30;15.25;;;8.38;;
74658;SDS011;63186;51.204;6.536;2023-04-15T07:51:55;14.18;;;8.07;;
74658;SDS011;63186;51.204;6.536;2023-04-15T07:54:21;14.43;;;8.02;;
74658;SDS011;63186;51.204;6.536;2023-04-15T07:56:47;13.98;;;8.30;;
74658;SDS011;63186;51.204;6.536;2023-04-15T07:59:13;14.57;;;9.20;;
74658;SDS011;63186;51.204;6.536;2023-04-15T08:01:41;13.55;;;7.32;;
74658;SDS011;63186;51.204;6.536;2023-04-15T08:04:07;12.40;;;7.55;;
74658;SDS011;63186;51.204;6.536;2023-04-15T08:06:33;12.63;;;7.57;;
74658;SDS011;63186;51.204;6.536;2023-04-15T08:08:58;13.65;;;7.18;;
74658;SDS011;63186;51.204;6.536;2023-04-15T08:11:24;8.57;;;4.82;;
74658;SDS011;63186;51.204;6.536;2023-04-15T08:13:49;9.93;;;5.70;;
74658;SDS011;63186;51.204;6.536;2023-04-15T08:16:16;8.68;;;4.18;;
74658;SDS011;63186;51.204;6.536;2023-04-15T08:18:46;9.77;;;5.80;;
74658;SDS011;63186;51.204;6.536;2023-04-15T08:21:12;10.45;;;5.30;;
74658;SDS011;63186;51.204;6.536;2023-04-15T08:23:37;9.70;;;5.35;;
74658;SDS011;63186;51.204;6.536;2023-04-15T08:26:03;12.77;;;4.85;;
74658;SDS011;63186;51.204;6.536;2023-04-15T08:28:28;11.57;;;5.90;;
74658;SDS011;63186;51.204;6.536;2023-04-15T08:30:54;10.90;;;6.07;;
74658;SDS011;63186;51.204;6.536;2023-04-15T08:33:19;13.57;;;6.53;;
74658;SDS011;63186;51.204;6.536;2023-04-15T08:35:44;13.45;;;6.68;;
74658;SDS011;63186;51.204;6.536;2023-04-15T08:38:10;12.68;;;6.85;;
74658;SDS011;63186;51.204;6.536;2023-04-15T08:40:39;12.43;;;6.35;;
74658;SDS011;63186;51.204;6.536;2023-04-15T08:43:10;12.27;;;5.95;;
74658;SDS011;63186;51.204;6.536;2023-04-15T08:45:39;13.68;;;6.47;;
74658;SDS011;63186;51.204;6.536;2023-04-15T08:48:05;11.18;;;5.78;;
74658;SDS011;63186;51.204;6.536;2023-04-15T08:50:33;11.80;;;5.50;;
74658;SDS011;63186;51.204;6.536;2023-04-15T08:52:59;9.25;;;5.03;;
74658;SDS011;63186;51.204;6.536;2023-04-15T08:55:28;10.77;;;6.15;;
74658;SDS011;63186;51.204;6.536;2023-04-15T08:57:57;10.35;;;4.97;;
74658;SDS011;63186;51.204;6.536;2023-04-15T09:00:24;8.85;;;4.57;;
74658;SDS011;63186;51.204;6.536;2023-04-15T09:02:49;9.70;;;5.10;;
74658;SDS011;63186;51.204;6.536;2023-04-15T09:05:15;10.63;;;5.22;;
74658;SDS011;63186;51.204;6.536;2023-04-15T09:07:41;8.82;;;4.25;;
74658;SDS011;63186;51.204;6.536;2023-04-15T09:10:06;9.30;;;3.60;;
74658;SDS011;63186;51.204;6.536;2023-04-15T09:12:36;9.77;;;3.15;;
74658;SDS011;63186;51.204;6.536;2023-04-15T09:15:01;7.38;;;3.38;;
74658;SDS011;63186;51.204;6.536;2023-04-15T09:17:27;7.80;;;3.70;;
74658;SDS011;63186;51.204;6.536;2023-04-15T09:20:08;9.38;;;3.75;;
74658;SDS011;63186;51.204;6.536;2023-04-15T09:22:38;8.02;;;3.60;;
74658;SDS011;63186;51.204;6.536;2023-04-15T09:25:26;7.05;;;3.00;;
74658;SDS011;63186;51.204;6.536;2023-04-15T09:27:53;8.75;;;3.90;;
74658;SDS011;63186;51.204;6.536;2023-04-15T09:30:20;6.68;;;3.03;;
74658;SDS011;63186;51.204;6.536;2023-04-15T09:32:49;7.65;;;3.58;;
74658;SDS011;63186;51.204;6.536;2023-04-15T09:35:23;7.45;;;3.50;;
74658;SDS011;63186;51.204;6.536;2023-04-15T09:37:49;6.65;;;3.25;;
74658;SDS011;63186;51.204;6.536;2023-04-15T09:40:29;7.05;;;2.53;;
74658;SDS011;63186;51.204;6.536;2023-04-15T09:42:58;5.53;;;2.47;;
74658;SDS011;63186;51.204;6.536;2023-04-15T09:45:25;4.82;;;2.33;;
74658;SDS011;63186;51.204;6.536;2023-04-15T09:47:51;7.90;;;3.65;;
74658;SDS011;63186;51.204;6.536;2023-04-15T09:50:17;6.30;;;2.80;;
74658;SDS011;63186;51.204;6.536;2023-04-15T09:52:43;5.72;;;2.40;;
74658;SDS011;63186;51.204;6.536;2023-04-15T09:55:10;6.22;;;2.45;;
74658;SDS011;63186;51.204;6.536;2023-04-15T09:57:36;7.35;;;2.85;;
74658;SDS011;63186;51.204;6.536;2023-04-15T10:00:03;6.60;;;2.70;;
74658;SDS011;63186;51.204;6.536;2023-04-15T10:02:30;6.47;;;2.80;;
74658;SDS011;63186;51.204;6.536;2023-04-15T10:04:56;6.75;;;2.50;;
74658;SDS011;63186;51.204;6.536;2023-04-15T10:07:22;6.10;;;2.33;;
74658;SDS011;63186;51.204;6.536;2023-04-15T10:09:47;4.70;;;2.15;;
74658;SDS011;63186;51.204;6.536;2023-04-15T10:12:14;5.97;;;2.35;;
74658;SDS011;63186;51.204;6.536;2023-04-15T10:14:41;5.55;;;2.58;;
74658;SDS011;63186;51.204;6.536;2023-04-15T10:17:08;6.60;;;2.85;;
74658;SDS011;63186;51.204;6.536;2023-04-15T10:19:36;6.10;;;2.60;;
74658;SDS011;63186;51.204;6.536;2023-04-15T10:22:02;5.80;;;2.20;;
74658;SDS011;63186;51.204;6.536;2023-04-15T10:24:29;5.25;;;2.17;;
74658;SDS011;63186;51.204;6.536;2023-04-15T10:26:56;5.60;;;2.35;;
74658;SDS011;63186;51.204;6.536;2023-04-15T10:29:22;4.95;;;1.83;;
74658;SDS011;63186;51.204;6.536;2023-04-15T10:31:50;6.75;;;2.80;;
74658;SDS011;63186;51.204;6.536;2023-04-15T10:34:16;5.15;;;2.47;;
74658;SDS011;63186;51.204;6.536;2023-04-15T10:36:43;5.25;;;2.10;;
74658;SDS011;63186;51.204;6.536;2023-04-15T10:39:37;5.07;;;2.47;;
74658;SDS011;63186;51.204;6.536;2023-04-15T10:42:16;5.97;;;2.95;;
74658;SDS011;63186;51.204;6.536;2023-04-15T10:44:44;5.55;;;2.92;;
74658;SDS011;63186;51.204;6.536;2023-04-15T10:47:14;6.07;;;3.08;;
74658;SDS011;63186;51.204;6.536;2023-04-15T10:49:43;7.07;;;2.88;;
74658;SDS011;63186;51.204;6.536;2023-04-15T10:52:36;7.07;;;3.13;;
74658;SDS011;63186;51.204;6.536;2023-04-15T10:57:38;7.30;;;3.45;;
74658;SDS011;63186;51.204;6.536;2023-04-15T11:02:39;5.32;;;2.58;;
74658;SDS011;63186;51.204;6.536;2023-04-15T11:05:06;6.13;;;2.65;;
74658;SDS011;63186;51.204;6.536;2023-04-15T11:18:08;7.30;;;3.78;;
74658;SDS011;63186;51.204;6.536;2023-04-15T11:20:34;7.65;;;3.72;;
74658;SDS011;63186;51.204;6.536;2023-04-15T11:23:00;7.35;;;3.55;;
74658;SDS011;63186;51.204;6.536;2023-04-15T11:25:29;8.38;;;4.25;;
74658;SDS011;63186;51.204;6.536;2023-04-15T11:27:57;7.22;;;3.70;;
74658;SDS011;63186;51.204;6.536;2023-04-15T11:30:24;9.40;;;4.70;;
74658;SDS011;63186;51.204;6.536;2023-04-15T11:32:51;9.73;;;4.40;;
74658;SDS011;63186;51.204;6.536;2023-04-15T11:35:19;9.50;;;4.53;;
74658;SDS011;63186;51.204;6.536;2023-04-15T11:37:45;7.78;;;3.70;;
74658;SDS011;63186;51.204;6.536;2023-04-15T11:40:11;7.30;;;3.58;;
74658;SDS011;63186;51.204;6.536;2023-04-15T11:42:37;5.68;;;2.53;;
74658;SDS011;63186;51.204;6.536;2023-04-15T11:45:09;7.07;;;3.83;;
74658;SDS011;63186;51.204;6.536;2023-04-15T11:47:35;6.45;;;3.13;;
74658;SDS011;63186;51.204;6.536;2023-04-15T11:52:53;6.00;;;3.15;;
74658;SDS011;63186;51.204;6.536;2023-04-15T11:55:19;7.60;;;3.42;;
74658;SDS011;63186;51.204;6.536;2023-04-15T11:57:44;5.85;;;2.72;;
74658;SDS011;63186;51.204;6.536;2023-04-15T12:00:10;6.53;;;3.33;;
74658;SDS011;63186;51.204;6.536;2023-04-15T12:02:36;7.15;;;3.40;;
74658;SDS011;63186;51.204;6.536;2023-04-15T12:05:02;9.48;;;4.00;;
74658;SDS011;63186;51.204;6.536;2023-04-15T12:07:29;7.50;;;4.05;;
74658;SDS011;63186;51.204;6.536;2023-04-15T12:09:54;9.38;;;4.70;;
74658;SDS011;63186;51.204;6.536;2023-04-15T12:12:20;8.52;;;4.10;;
74658;SDS011;63186;51.204;6.536;2023-04-15T12:14:46;7.22;;;3.90;;
74658;SDS011;63186;51.204;6.536;2023-04-15T12:17:11;9.33;;;4.17;;
74658;SDS011;63186;51.204;6.536;2023-04-15T12:19:38;7.30;;;3.38;;
74658;SDS011;63186;51.204;6.536;2023-04-15T12:22:09;6.95;;;3.50;;
74658;SDS011;63186;51.204;6.536;2023-04-15T12:24:41;9.25;;;3.95;;
74658;SDS011;63186;51.204;6.536;2023-04-15T12:27:11;6.85;;;3.33;;
74658;SDS011;63186;51.204;6.536;2023-04-15T12:29:37;7.53;;;2.90;;
74658;SDS011;63186;51.204;6.536;2023-04-15T12:32:05;6.90;;;3.30;;
74658;SDS011;63186;51.204;6.536;2023-04-15T12:34:33;7.28;;;3.03;;
74658;SDS011;63186;51.204;6.536;2023-04-15T12:37:00;8.75;;;3.55;;
74658;SDS011;63186;51.204;6.536;2023-04-15T12:39:29;8.93;;;3.30;;
74658;SDS011;63186;51.204;6.536;2023-04-15T12:44:22;7.63;;;3.10;;
74658;SDS011;63186;51.204;6.536;2023-04-15T12:46:48;7.00;;;2.92;;
74658;SDS011;63186;51.204;6.536;2023-04-15T12:49:14;6.50;;;2.92;;
74658;SDS011;63186;51.204;6.536;2023-04-15T12:51:40;6.03;;;2.70;;
74658;SDS011;63186;51.204;6.536;2023-04-15T12:54:05;6.63;;;3.00;;
74658;SDS011;63186;51.204;6.536;2023-04-15T12:56:30;5.53;;;2.27;;
74658;SDS011;63186;51.204;6.536;2023-04-15T12:58:56;5.43;;;2.30;;
74658;SDS011;63186;51.204;6.536;2023-04-15T13:01:21;7.07;;;2.97;;
74658;SDS011;63186;51.204;6.536;2023-04-15T13:03:47;5.35;;;2.42;;
74658;SDS011;63186;51.204;6.536;2023-04-15T13:06:12;5.43;;;2.25;;
74658;SDS011;63186;51.204;6.536;2023-04-15T13:08:37;6.47;;;2.87;;
74658;SDS011;63186;51.204;6.536;2023-04-15T13:11:03;6.45;;;2.80;;
74658;SDS011;63186;51.204;6.536;2023-04-15T13:13:28;7.67;;;3.20;;
74658;SDS011;63186;51.204;6.536;2023-04-15T13:15:55;6.68;;;3.40;;
74658;SDS011;63186;51.204;6.536;2023-04-15T13:18:21;6.00;;;2.58;;
74658;SDS011;63186;51.204;6.536;2023-04-15T13:20:47;5.82;;;3.08;;
74658;SDS011;63186;51.204;6.536;2023-04-15T13:23:12;7.03;;;3.08;;
74658;SDS011;63186;51.204;6.536;2023-04-15T13:25:38;5.95;;;3.17;;
74658;SDS011;63186;51.204;6.536;2023-04-15T13:28:04;7.80;;;3.17;;
74658;SDS011;63186;51.204;6.536;2023-04-15T13:30:29;8.57;;;3.37;;
74658;SDS011;63186;51.204;6.536;2023-04-15T13:32:55;6.43;;;3.28;;
74658;SDS011;63186;51.204;6.536;2023-04-15T13:35:20;9.52;;;2.95;;
74658;SDS011;63186;51.204;6.536;2023-04-15T13:37:45;6.33;;;2.93;;
74658;SDS011;63186;51.204;6.536;2023-04-15T13:40:11;6.57;;;3.08;;
74658;SDS011;63186;51.204;6.536;2023-04-15T13:42:36;7.07;;;2.85;;
74658;SDS011;63186;51.204;6.536;2023-04-15T13:45:02;6.40;;;3.07;;
74658;SDS011;63186;51.204;6.536;2023-04-15T13:47:27;7.20;;;2.53;;
74658;SDS011;63186;51.204;6.536;2023-04-15T13:49:52;7.82;;;3.25;;
74658;SDS011;63186;51.204;6.536;2023-04-15T13:52:20;6.55;;;3.08;;
74658;SDS011;63186;51.204;6.536;2023-04-15T13:54:45;7.25;;;3.42;;
74658;SDS011;63186;51.204;6.536;2023-04-15T13:57:11;6.25;;;2.72;;
74658;SDS011;63186;51.204;6.536;2023-04-15T13:59:37;6.68;;;2.55;;
74658;SDS011;63186;51.204;6.536;2023-04-15T14:02:02;6.78;;;3.13;;
74658;SDS011;63186;51.204;6.536;2023-04-15T14:04:28;6.30;;;2.42;;
74658;SDS011;63186;51.204;6.536;2023-04-15T14:06:55;7.32;;;3.53;;
74658;SDS011;63186;51.204;6.536;2023-04-15T14:09:20;4.93;;;2.67;;
74658;SDS011;63186;51.204;6.536;2023-04-15T14:11:47;6.05;;;2.80;;
74658;SDS011;63186;51.204;6.536;2023-04-15T14:14:13;5.28;;;2.53;;
74658;SDS011;63186;51.204;6.536;2023-04-15T14:16:38;6.47;;;2.60;;
74658;SDS011;63186;51.204;6.536;2023-04-15T14:19:04;5.63;;;3.17;;
74658;SDS011;63186;51.204;6.536;2023-04-15T14:21:29;6.47;;;3.03;;
74658;SDS011;63186;51.204;6.536;2023-04-15T14:23:56;7.03;;;3.03;;
74658;SDS011;63186;51.204;6.536;2023-04-15T14:26:21;6.93;;;4.53;;
74658;SDS011;63186;51.204;6.536;2023-04-15T14:28:46;8.32;;;3.97;;
74658;SDS011;63186;51.204;6.536;2023-04-15T14:31:12;7.03;;;2.85;;
74658;SDS011;63186;51.204;6.536;2023-04-15T14:33:38;6.97;;;3.05;;
74658;SDS011;63186;51.204;6.536;2023-04-15T14:36:03;8.10;;;2.60;;
74658;SDS011;63186;51.204;6.536;2023-04-15T14:38:28;9.23;;;3.67;;
74658;SDS011;63186;51.204;6.536;2023-04-15T14:40:54;7.90;;;3.22;;
74658;SDS011;63186;51.204;6.536;2023-04-15T14:43:20;6.40;;;2.87;;
74658;SDS011;63186;51.204;6.536;2023-04-15T14:45:45;7.22;;;3.10;;
74658;SDS011;63186;51.204;6.536;2023-04-15T14:48:11;6.03;;;2.70;;
74658;SDS011;63186;51.204;6.536;2023-04-15T14:50:36;7.00;;;2.85;;
74658;SDS011;63186;51.204;6.536;2023-04-15T14:53:02;7.15;;;2.85;;
74658;SDS011;63186;51.204;6.536;2023-04-15T14:55:27;7.07;;;2.63;;
74658;SDS011;63186;51.204;6.536;2023-04-15T14:57:52;8.47;;;2.90;;